Time;durP1;ratioP1;P1;durP2;ratioP2;P2;SDS_P1;SDS_P2;PMS_P1;PMS_P2;Temp;Humidity;BMP_temperature;BMP_pressure;BME280_temperature;BME280_humidity;BME280_pressure;Samples;Min_cycle;Max_cycle;Signal;HPM_P1;HPM_P2
2021/07/31 00:01:07;;;;;;;12.88;8.60;;;;;;;17.51;71.66;96567.12;1823147;77;26159;-82
2021/07/31 00:03:35;;;;;;;12.20;9.15;;;;;;;17.46;71.67;96564.42;1829094;77;25687;-82
2021/07/31 00:06:02;;;;;;;11.50;9.03;;;;;;;17.47;71.81;96566.60;1805990;77;28048;-82
2021/07/31 00:08:29;;;;;;;14.35;9.20;;;;;;;17.46;71.79;96557.59;1809076;77;26399;-82
2021/07/31 00:10:56;;;;;;;14.83;9.03;;;;;;;17.45;71.77;96560.59;1828094;77;25886;-82
2021/07/31 00:13:23;;;;;;;11.85;9.28;;;;;;;17.44;71.85;96561.14;1828398;77;25875;-83
2021/07/31 00:15:50;;;;;;;16.15;9.53;;;;;;;17.33;71.73;96558.16;1836363;77;25633;-82
2021/07/31 00:18:16;;;;;;;12.15;8.85;;;;;;;17.28;71.87;96552.16;1832044;77;27331;-83
2021/07/31 00:20:43;;;;;;;16.48;8.98;;;;;;;17.28;71.94;96554.06;1834250;77;25750;-82
2021/07/31 00:23:10;;;;;;;15.15;9.08;;;;;;;17.23;72.00;96547.27;1834535;77;25738;-83
2021/07/31 00:25:37;;;;;;;12.28;9.70;;;;;;;17.12;71.98;96545.09;1826344;77;25836;-82
2021/07/31 00:28:04;;;;;;;11.40;9.40;;;;;;;17.09;72.16;96551.63;1831627;77;25741;-82
2021/07/31 00:30:31;;;;;;;11.43;9.15;;;;;;;17.08;72.20;96558.17;1831704;77;28398;-83
2021/07/31 00:32:57;;;;;;;12.95;8.63;;;;;;;17.07;72.24;96553.27;1821250;77;25751;-83
2021/07/31 00:35:24;;;;;;;12.47;8.68;;;;;;;17.06;72.28;96553.53;1751465;79;26605;-82
2021/07/31 00:37:51;;;;;;;10.10;8.35;;;;;;;17.04;72.18;96552.98;1761471;78;26165;-82
2021/07/31 00:40:17;;;;;;;11.38;8.63;;;;;;;17.01;72.21;96546.73;1764822;79;25698;-82
2021/07/31 00:42:44;;;;;;;10.23;7.95;;;;;;;16.98;72.20;96545.91;1819626;77;27347;-83
2021/07/31 00:45:13;;;;;;;11.12;8.50;;;;;;;16.97;72.21;96547.00;1826662;77;26430;-82
2021/07/31 00:47:40;;;;;;;10.15;8.40;;;;;;;16.92;72.15;96545.89;1835203;77;25681;-82
2021/07/31 00:50:08;;;;;;;10.53;8.73;;;;;;;16.89;72.27;96542.38;1811887;77;26318;-82
2021/07/31 00:52:36;;;;;;;13.62;8.73;;;;;;;16.86;72.30;96542.09;1776116;78;25727;-82
2021/07/31 00:55:04;;;;;;;16.73;8.88;;;;;;;16.87;72.44;96539.64;1835104;77;27584;-82
2021/07/31 00:57:33;;;;;;;13.55;8.48;;;;;;;16.86;72.48;96540.73;1830296;76;26604;-83
2021/07/31 01:00:00;;;;;;;10.85;8.23;;;;;;;16.82;72.49;96541.80;1830732;77;25688;-82
2021/07/31 01:02:26;;;;;;;10.00;8.28;;;;;;;16.77;72.50;96548.64;1829631;77;25676;-81
2021/07/31 01:04:53;;;;;;;11.90;7.75;;;;;;;16.74;72.61;96557.34;1829941;77;26177;-81
2021/07/31 01:07:20;;;;;;;10.50;8.18;;;;;;;16.70;72.60;96549.97;1807274;77;27414;-81
2021/07/31 01:09:47;;;;;;;8.25;7.35;;;;;;;16.66;72.54;96559.25;1818747;77;25693;-82
2021/07/31 01:12:13;;;;;;;14.33;8.18;;;;;;;16.64;72.60;96552.43;1819274;77;26246;-82
2021/07/31 01:14:41;;;;;;;10.58;7.85;;;;;;;16.63;72.68;96555.70;1828288;77;25685;-81
2021/07/31 01:17:11;;;;;;;16.73;8.70;;;;;;;16.63;72.74;96548.06;1805835;77;25682;-81
2021/07/31 01:19:36;;;;;;;10.60;8.08;;;;;;;16.62;72.77;96554.57;1831294;76;28248;-82
2021/07/31 01:22:03;;;;;;;19.75;8.85;;;;;;;16.58;72.82;96552.38;1822026;77;25927;-81
2021/07/31 01:24:30;;;;;;;11.80;8.48;;;;;;;16.56;72.86;96556.45;1800699;77;25836;-81
2021/07/31 01:26:57;;;;;;;10.88;8.25;;;;;;;16.52;73.00;96546.66;1824378;77;25720;-81
2021/07/31 01:29:23;;;;;;;10.90;7.87;;;;;;;16.47;72.93;96552.62;1834630;77;25676;-82
2021/07/31 01:31:50;;;;;;;12.13;7.90;;;;;;;16.47;73.13;96552.62;1763825;78;28459;-82
2021/07/31 01:34:16;;;;;;;12.33;8.45;;;;;;;16.46;73.13;96544.18;1759108;79;25660;-82
2021/07/31 01:36:43;;;;;;;10.63;7.72;;;;;;;16.46;73.22;96541.45;1785293;79;26310;-82
2021/07/31 01:39:10;;;;;;;12.35;8.40;;;;;;;16.47;73.23;96542.55;1790034;79;26227;-82
2021/07/31 01:41:37;;;;;;;15.95;7.70;;;;;;;16.39;73.14;96539.55;1797174;79;25667;-81
2021/07/31 01:44:04;;;;;;;15.23;8.53;;;;;;;16.24;73.21;96532.16;1785311;78;27368;-82
2021/07/31 01:46:30;;;;;;;10.32;8.00;;;;;;;16.23;73.50;96534.59;1787803;79;25961;-82
2021/07/31 01:48:57;;;;;;;11.18;8.35;;;;;;;16.17;73.52;96528.88;1789375;79;26288;-81
2021/07/31 01:51:24;;;;;;;11.33;8.48;;;;;;;16.18;73.67;96529.94;1767992;79;26243;-81
2021/07/31 01:53:50;;;;;;;13.53;8.50;;;;;;;16.15;73.68;96524.23;1791182;78;25745;-82
2021/07/31 01:56:17;;;;;;;14.18;7.90;;;;;;;16.08;73.68;96528.55;1788530;78;27325;-82
2021/07/31 01:58:44;;;;;;;15.03;8.78;;;;;;;16.07;73.89;96524.20;1778226;78;25829;-82
2021/07/31 02:01:10;;;;;;;13.50;8.80;;;;;;;16.11;73.97;96518.50;1776406;78;26433;-81
2021/07/31 02:03:37;;;;;;;11.55;8.05;;;;;;;16.15;73.94;96517.43;1796503;79;26182;-82
2021/07/31 02:06:03;;;;;;;13.60;7.80;;;;;;;16.16;73.86;96511.72;1773215;80;25672;-82
2021/07/31 02:08:30;;;;;;;14.07;7.92;;;;;;;16.17;73.81;96512.00;1787320;78;28857;-82
2021/07/31 02:10:57;;;;;;;15.30;8.35;;;;;;;16.15;73.82;96507.91;1788397;79;26428;-82
2021/07/31 02:13:23;;;;;;;13.03;7.72;;;;;;;16.11;73.76;96514.42;1772757;79;25948;-82
2021/07/31 02:15:50;;;;;;;13.68;8.08;;;;;;;16.02;73.68;96506.50;1790019;79;26404;-82
2021/07/31 02:18:16;;;;;;;13.38;8.40;;;;;;;15.95;73.81;96503.20;1788679;78;25769;-82
2021/07/31 02:20:44;;;;;;;12.50;7.78;;;;;;;15.88;73.89;96498.55;1783564;78;27351;-82
2021/07/31 02:23:11;;;;;;;14.43;8.03;;;;;;;15.93;74.12;96497.77;1787534;79;25860;-82
2021/07/31 02:25:37;;;;;;;14.38;7.72;;;;;;;15.97;74.10;96496.95;1784541;79;25760;-82
2021/07/31 02:28:04;;;;;;;11.00;7.70;;;;;;;15.94;74.03;96496.11;1777212;78;25798;-83
2021/07/31 02:30:31;;;;;;;14.15;9.18;;;;;;;15.92;74.12;96493.41;1779308;80;25851;-82
2021/07/31 02:32:57;;;;;;;9.15;7.60;;;;;;;15.95;74.14;96495.03;1763258;79;27444;-82
2021/07/31 02:35:24;;;;;;;10.65;7.90;;;;;;;15.96;74.04;96492.59;1737687;80;25743;-82
2021/07/31 02:37:51;;;;;;;12.98;7.20;;;;;;;15.97;74.03;96492.05;1755475;80;26273;-82
2021/07/31 02:40:17;;;;;;;12.07;7.37;;;;;;;15.97;74.06;96490.14;1764727;79;25595;-83
2021/07/31 02:42:44;;;;;;;8.73;7.20;;;;;;;15.96;74.02;96487.14;1757398;80;25822;-82
2021/07/31 02:45:10;;;;;;;9.63;6.85;;;;;;;15.95;74.05;96488.23;1759611;80;27311;-83
2021/07/31 02:47:37;;;;;;;12.75;6.90;;;;;;;15.92;74.03;96483.88;1759645;79;25753;-82
2021/07/31 02:50:04;;;;;;;9.70;6.47;;;;;;;15.91;74.01;96483.06;1763957;80;25885;-83
2021/07/31 02:52:31;;;;;;;9.30;7.42;;;;;;;15.89;74.10;96474.34;1757856;80;26375;-82
2021/07/31 02:54:57;;;;;;;10.00;6.80;;;;;;;15.87;74.14;96477.87;1754391;79;25890;-82
2021/07/31 02:57:24;;;;;;;8.48;6.80;;;;;;;15.88;74.11;96475.97;1754921;80;27340;-82
2021/07/31 02:59:51;;;;;;;9.33;7.17;;;;;;;15.88;74.15;96482.23;1736583;80;25810;-82
2021/07/31 03:02:17;;;;;;;12.20;6.85;;;;;;;15.88;74.17;96480.87;1757895;80;25373;-82
2021/07/31 03:04:44;;;;;;;10.53;7.60;;;;;;;15.89;74.20;96481.14;1759756;80;26373;-81
2021/07/31 03:07:11;;;;;;;10.70;7.72;;;;;;;15.84;74.13;96470.23;1758359;79;25738;-82
2021/07/31 03:09:37;;;;;;;11.90;7.08;;;;;;;15.80;74.25;96473.23;1756494;79;27508;-82
2021/07/31 03:12:04;;;;;;;9.48;7.33;;;;;;;15.82;74.31;96473.76;1747340;80;25763;-81
2021/07/31 03:14:31;;;;;;;9.13;6.80;;;;;;;15.81;74.27;96473.52;1738951;79;25743;-82
2021/07/31 03:16:57;;;;;;;8.95;6.53;;;;;;;15.80;74.43;96475.41;1772551;80;25815;-83
2021/07/31 03:19:24;;;;;;;9.08;6.92;;;;;;;15.80;74.51;96471.87;1756022;80;25707;-81
2021/07/31 03:21:50;;;;;;;10.28;7.17;;;;;;;15.81;74.56;96470.25;1754578;79;27975;-82
2021/07/31 03:24:17;;;;;;;9.28;7.25;;;;;;;15.83;74.62;96478.94;1744088;80;25990;-82
2021/07/31 03:26:44;;;;;;;7.87;6.92;;;;;;;15.86;74.60;96476.23;1754555;80;25660;-82
2021/07/31 03:29:10;;;;;;;8.60;7.10;;;;;;;15.86;74.65;96478.95;1753616;80;25741;-82
2021/07/31 03:31:37;;;;;;;9.45;7.50;;;;;;;15.88;74.72;96483.59;1756536;80;25708;-82
2021/07/31 03:34:03;;;;;;;11.15;7.75;;;;;;;15.88;74.74;96489.58;1746290;80;27454;-82
2021/07/31 03:36:30;;;;;;;10.35;7.47;;;;;;;15.89;74.75;96487.13;1751331;80;25698;-83
2021/07/31 03:38:57;;;;;;;11.88;7.90;;;;;;;15.89;74.82;96489.85;1736867;80;26093;-81
2021/07/31 03:41:23;;;;;;;11.15;7.42;;;;;;;15.91;74.88;96488.50;1747975;79;26159;-83
2021/07/31 03:43:50;;;;;;;10.58;7.15;;;;;;;15.93;74.88;96489.61;1758960;79;26502;-82
2021/07/31 03:46:16;;;;;;;9.10;7.15;;;;;;;15.94;74.87;96483.08;1728201;79;27574;-81
2021/07/31 03:48:43;;;;;;;10.78;7.40;;;;;;;15.96;74.98;96482.24;1737556;80;26496;-82
2021/07/31 03:51:09;;;;;;;12.45;7.47;;;;;;;15.92;74.92;96473.81;1814318;77;25756;-81
2021/07/31 03:53:36;;;;;;;14.50;9.18;;;;;;;15.97;75.02;96474.35;1815815;78;25787;-82
2021/07/31 03:56:03;;;;;;;13.85;9.75;;;;;;;16.00;75.07;96477.37;1814452;77;25518;-82
2021/07/31 03:58:30;;;;;;;12.93;8.90;;;;;;;16.01;75.15;96476.28;1815158;77;27355;-81
2021/07/31 04:00:56;;;;;;;13.60;9.48;;;;;;;15.98;75.21;96469.19;1815554;77;25246;-82
2021/07/31 04:03:23;;;;;;;13.08;8.63;;;;;;;15.96;75.26;96472.72;1793069;77;25705;-82
2021/07/31 04:05:49;;;;;;;11.85;8.53;;;;;;;16.00;75.41;96477.37;1815720;77;25485;-81
2021/07/31 04:08:16;;;;;;;12.47;8.68;;;;;;;16.03;75.43;96475.48;1807367;77;25759;-81
2021/07/31 04:10:43;;;;;;;13.30;9.03;;;;;;;16.08;75.50;96479.55;1804171;78;28161;-82
2021/07/31 04:13:09;;;;;;;11.18;9.20;;;;;;;16.14;75.57;96477.68;1814847;78;25979;-82
2021/07/31 04:15:36;;;;;;;10.78;8.78;;;;;;;16.16;75.62;96479.05;1814795;77;25721;-82
2021/07/31 04:18:02;;;;;;;11.60;8.53;;;;;;;16.23;75.64;96479.32;1792477;77;25978;-81
2021/07/31 04:20:29;;;;;;;11.22;8.83;;;;;;;16.28;75.64;96480.70;1814284;77;25636;-83
2021/07/31 04:22:56;;;;;;;11.90;9.03;;;;;;;16.34;75.73;96480.97;1815829;78;28183;-82
2021/07/31 04:25:22;;;;;;;17.82;8.95;;;;;;;16.39;75.68;96484.53;1808326;78;25722;-82
2021/07/31 04:27:49;;;;;;;12.47;8.85;;;;;;;16.41;75.70;96488.35;1811029;77;25784;-82
2021/07/31 04:30:16;;;;;;;14.30;9.35;;;;;;;16.46;75.83;96480.98;1792731;77;25700;-82
2021/07/31 04:32:42;;;;;;;12.18;8.93;;;;;;;16.49;75.75;96479.63;1785913;78;25614;-82
2021/07/31 04:35:09;;;;;;;13.83;9.78;;;;;;;16.58;75.70;96478.00;1820660;76;27459;-81
2021/07/31 04:37:37;;;;;;;15.40;10.05;;;;;;;16.64;75.74;96483.77;1799637;77;25716;-82
2021/07/31 04:40:05;;;;;;;26.17;16.10;;;;;;;16.70;75.73;96485.39;1829775;77;25834;-82
2021/07/31 04:42:31;;;;;;;23.83;14.45;;;;;;;16.76;75.71;96482.95;1793520;77;25696;-83
2021/07/31 04:44:58;;;;;;;18.90;11.80;;;;;;;16.82;75.80;96483.21;1804657;78;25715;-81
2021/07/31 04:47:25;;;;;;;14.95;12.23;;;;;;;16.88;75.73;96482.68;1832644;77;28170;-82
2021/07/31 04:49:52;;;;;;;15.32;11.60;;;;;;;16.95;75.67;96482.39;1817806;77;25749;-82
2021/07/31 04:52:18;;;;;;;19.15;11.30;;;;;;;17.02;75.70;96481.58;1785739;77;25778;-82
2021/07/31 04:54:45;;;;;;;16.45;11.03;;;;;;;17.06;75.67;96479.92;1829215;77;26327;-81
2021/07/31 04:57:13;;;;;;;15.30;10.80;;;;;;;17.12;75.58;96476.11;1807369;77;25811;-82
2021/07/31 04:59:40;;;;;;;12.23;9.88;;;;;;;17.20;75.51;96474.17;1825714;77;27351;-82
2021/07/31 05:02:06;;;;;;;21.07;14.35;;;;;;;17.26;75.39;96478.00;1832433;77;25657;-82
2021/07/31 05:04:33;;;;;;;14.00;10.85;;;;;;;17.31;75.25;96474.42;1796638;77;25783;-82
2021/07/31 05:07:00;;;;;;;13.40;10.60;;;;;;;17.36;75.28;96477.15;1802890;77;25760;-82
2021/07/31 05:09:27;;;;;;;15.13;10.60;;;;;;;17.43;75.42;96470.84;1832356;77;25655;-82
2021/07/31 05:11:53;;;;;;;12.82;9.90;;;;;;;17.47;75.44;96470.56;1832483;77;27357;-82
2021/07/31 05:14:20;;;;;;;13.98;10.40;;;;;;;17.54;75.41;96475.17;1832133;77;25785;-81
2021/07/31 05:16:47;;;;;;;14.03;10.93;;;;;;;17.61;75.33;96470.25;1832536;77;25623;-82
2021/07/31 05:19:13;;;;;;;16.87;11.78;;;;;;;17.68;75.35;96474.61;1832531;77;25992;-82
2021/07/31 05:21:40;;;;;;;18.35;11.93;;;;;;;17.73;75.37;96473.23;1832397;77;25858;-82
2021/07/31 05:24:07;;;;;;;16.67;12.63;;;;;;;17.78;75.40;96466.38;1813169;77;28197;-82
2021/07/31 05:26:33;;;;;;;20.27;14.65;;;;;;;17.83;75.25;96469.91;1817973;78;25720;-82
2021/07/31 05:29:00;;;;;;;23.40;14.15;;;;;;;17.89;75.26;96470.69;1829826;77;25805;-82
2021/07/31 05:31:26;;;;;;;14.70;11.88;;;;;;;17.92;75.21;96466.86;1829944;77;26259;-82
2021/07/31 05:33:53;;;;;;;15.05;11.55;;;;;;;17.98;75.14;96471.22;1829131;78;25755;-81
2021/07/31 05:36:20;;;;;;;24.45;11.73;;;;;;;18.05;74.97;96474.98;1823097;77;27516;-83
2021/07/31 05:38:46;;;;;;;15.28;12.10;;;;;;;18.12;74.96;96476.84;1829634;77;25704;-83
2021/07/31 05:41:16;;;;;;;19.57;11.65;;;;;;;18.18;74.93;96477.10;1797160;78;25721;-82
2021/07/31 05:43:43;;;;;;;14.20;10.53;;;;;;;18.23;75.02;96472.17;1809803;78;25727;-82
2021/07/31 05:46:10;;;;;;;11.97;10.18;;;;;;;18.30;74.94;96476.21;1825478;77;25783;-82
2021/07/31 05:48:37;;;;;;;14.18;11.12;;;;;;;18.38;74.64;96473.97;1817935;77;27190;-82
2021/07/31 05:51:03;;;;;;;13.28;10.13;;;;;;;18.46;74.58;96482.95;1829680;77;25787;-82
2021/07/31 05:53:30;;;;;;;12.53;9.98;;;;;;;18.53;74.68;96488.90;1829944;77;25777;-82
2021/07/31 05:55:57;;;;;;;16.55;11.12;;;;;;;18.56;74.54;96511.57;1829051;77;25655;-83
2021/07/31 05:58:23;;;;;;;13.58;10.08;;;;;;;18.64;74.51;96505.52;1798469;78;25676;-82
2021/07/31 06:00:50;;;;;;;15.38;10.78;;;;;;;18.68;74.66;96504.68;1829885;77;28130;-82
2021/07/31 06:03:16;;;;;;;16.65;11.18;;;;;;;18.74;74.83;96506.81;1806671;77;25798;-82
2021/07/31 06:05:43;;;;;;;13.72;9.98;;;;;;;18.80;74.91;96517.17;1829821;78;25666;-82
2021/07/31 06:08:09;;;;;;;18.35;10.23;;;;;;;18.85;74.96;96519.30;1829732;78;26350;-82
2021/07/31 06:10:36;;;;;;;15.83;10.23;;;;;;;18.89;74.95;96513.53;1829512;77;26453;-83
2021/07/31 06:13:04;;;;;;;14.00;10.65;;;;;;;18.95;74.87;96515.14;1795329;78;27530;-82
2021/07/31 06:15:31;;;;;;;12.10;9.75;;;;;;;19.00;74.50;96521.10;1809351;78;25839;-83
2021/07/31 06:17:58;;;;;;;14.60;10.72;;;;;;;19.04;74.39;96520.25;1829898;78;25229;-81
2021/07/31 06:20:24;;;;;;;22.80;11.18;;;;;;;19.10;74.51;96517.45;1783810;78;25735;-81
2021/07/31 06:22:51;;;;;;;12.93;10.68;;;;;;;19.18;74.30;96523.70;1791689;78;25242;-82
2021/07/31 06:25:18;;;;;;;14.98;10.05;;;;;;;19.25;74.23;96539.22;1816269;77;27350;-81
2021/07/31 06:27:45;;;;;;;15.50;9.68;;;;;;;19.30;73.92;96555.59;1803424;78;26076;-82
2021/07/31 06:30:12;;;;;;;25.92;10.05;;;;;;;19.35;73.91;96571.95;1804090;77;25645;-83
2021/07/31 06:32:38;;;;;;;13.30;9.30;;;;;;;19.43;73.46;96586.41;1802245;77;25658;-82
2021/07/31 06:35:06;;;;;;;12.80;9.90;;;;;;;19.56;73.33;96589.84;1809959;77;25762;-82
2021/07/31 06:37:32;;;;;;;9.83;8.23;;;;;;;19.64;73.04;96590.61;1805469;78;27538;-86
2021/07/31 06:39:59;;;;;;;9.83;8.43;;;;;;;19.71;72.80;96606.12;1763472;78;25772;-90
2021/07/31 06:42:26;;;;;;;12.63;8.98;;;;;;;19.75;72.51;96614.05;1806812;77;25645;-84
2021/07/31 06:44:52;;;;;;;12.60;8.30;;;;;;;19.75;72.20;96622.25;1820444;77;26146;-85
2021/07/31 06:47:19;;;;;;;11.65;7.90;;;;;;;19.73;72.15;96631.30;1820624;78;25680;-85
2021/07/31 06:49:46;;;;;;;9.85;7.65;;;;;;;19.68;72.09;96645.03;1779232;78;27484;-84
2021/07/31 06:52:14;;;;;;;12.40;7.72;;;;;;;19.66;72.18;96663.69;1806714;78;25756;-82
2021/07/31 06:54:40;;;;;;;10.05;7.72;;;;;;;19.60;72.14;96673.03;1781898;77;25836;-85
2021/07/31 06:57:11;;;;;;;8.75;7.65;;;;;;;19.48;72.26;96673.92;1796155;78;26125;-91
2021/07/31 06:59:39;;;;;;;10.10;7.92;;;;;;;19.40;72.51;96684.13;1771269;78;25729;-88
2021/07/31 07:02:06;;;;;;;13.72;8.55;;;;;;;19.30;72.92;96682.83;1820890;77;27442;-85
2021/07/31 07:04:32;;;;;;;11.65;8.45;;;;;;;19.16;73.15;96680.45;1780865;78;25648;-87
2021/07/31 07:06:59;;;;;;;18.70;12.63;;;;;;;19.08;73.53;96699.08;1817231;78;25238;-95
2021/07/31 07:09:26;;;;;;;18.17;9.05;;;;;;;19.05;73.80;96720.19;1820340;78;25715;-87
2021/07/31 07:11:53;;;;;;;14.28;9.28;;;;;;;18.95;74.00;96723.53;1813816;78;25787;-86
2021/07/31 07:14:20;;;;;;;12.05;8.55;;;;;;;18.83;74.42;96736.16;1799060;77;27386;-84
2021/07/31 07:16:46;;;;;;;12.23;8.23;;;;;;;18.70;74.38;96740.31;1804819;77;25729;-84
2021/07/31 07:19:14;;;;;;;14.80;9.23;;;;;;;18.63;75.09;96740.31;1822907;77;25819;-89
2021/07/31 07:21:40;;;;;;;13.43;8.85;;;;;;;18.63;75.44;96744.42;1819839;78;25627;-90
2021/07/31 07:24:07;;;;;;;12.55;9.20;;;;;;;18.62;75.68;96741.41;1817885;77;25752;-92
2021/07/31 07:26:34;;;;;;;10.00;8.33;;;;;;;18.62;75.94;96744.14;1810693;78;28228;-87
2021/07/31 07:29:00;;;;;;;10.18;9.03;;;;;;;18.56;76.06;96747.43;1815022;77;25596;-90
2021/07/31 07:31:27;;;;;;;13.65;8.95;;;;;;;18.55;76.32;96741.69;1807916;78;25722;-87
2021/07/31 07:33:56;;;;;;;11.28;8.90;;;;;;;18.54;76.51;96727.75;1772648;78;25701;-91
2021/07/31 07:36:22;;;;;;;9.75;8.28;;;;;;;18.48;76.65;96717.09;1809653;77;25774;-91
2021/07/31 07:38:48;;;;;;;15.70;9.25;;;;;;;18.51;76.80;96710.53;1809094;77;27497;-88
2021/07/31 07:41:16;;;;;;;10.98;9.38;;;;;;;18.55;76.94;96693.05;1809143;77;26119;-88
2021/07/31 07:43:42;;;;;;;10.80;9.15;;;;;;;18.53;77.04;96687.84;1806531;78;25751;-84
2021/07/31 07:46:13;;;;;;;11.63;9.33;;;;;;;18.50;77.15;96693.05;1808848;77;26162;-89
2021/07/31 07:48:41;;;;;;;13.13;9.83;;;;;;;18.52;77.32;96697.69;1811068;77;25738;-87
2021/07/31 07:51:08;;;;;;;15.55;10.78;;;;;;;18.54;77.48;96690.03;1819245;77;26833;-88
2021/07/31 07:53:35;;;;;;;12.20;10.23;;;;;;;18.53;77.52;96676.92;1737391;80;25780;-90
2021/07/31 07:56:03;;;;;;;15.43;10.60;;;;;;;18.59;77.74;96675.03;1803579;77;25649;-88
2021/07/31 07:58:29;;;;;;;12.33;10.28;;;;;;;18.65;78.05;96666.52;1737314;80;25714;-89
2021/07/31 08:00:56;;;;;;;12.78;9.68;;;;;;;18.66;78.15;96668.70;1744249;80;25697;-92
2021/07/31 08:03:23;;;;;;;12.95;10.72;;;;;;;18.70;78.19;96675.25;1751907;80;27405;-89
2021/07/31 08:05:49;;;;;;;37.38;27.07;;;;;;;18.77;78.26;96679.85;1753063;79;25784;-90
2021/07/31 08:08:16;;;;;;;15.85;11.80;;;;;;;18.83;78.31;96678.74;1750516;81;25240;-90
2021/07/31 08:10:43;;;;;;;12.28;10.98;;;;;;;18.85;78.45;96681.98;1744313;80;25706;-89
2021/07/31 08:13:12;;;;;;;12.73;9.98;;;;;;;18.83;78.38;96682.84;1756915;79;25732;-89
2021/07/31 08:15:39;;;;;;;10.40;9.38;;;;;;;18.85;78.46;96678.43;1737543;81;27552;-91
2021/07/31 08:18:06;;;;;;;16.35;9.73;;;;;;;18.85;78.42;96681.16;1750248;79;25968;-91
2021/07/31 08:20:32;;;;;;;12.43;9.75;;;;;;;18.87;78.52;96678.42;1747167;79;25230;-91
2021/07/31 08:22:59;;;;;;;10.88;9.45;;;;;;;18.87;78.64;96670.22;1755583;79;25806;-90
2021/07/31 08:25:26;;;;;;;11.10;8.85;;;;;;;18.85;78.57;96661.48;1744080;79;25736;-90
2021/07/31 08:27:52;;;;;;;10.70;8.73;;;;;;;18.85;78.65;96646.44;1772711;78;27985;-90
2021/07/31 08:30:19;;;;;;;9.40;7.70;;;;;;;18.90;78.76;96634.12;1785819;78;25671;-90
2021/07/31 08:32:45;;;;;;;11.10;8.48;;;;;;;18.93;78.82;96611.69;1796725;78;25305;-89
2021/07/31 08:35:12;;;;;;;8.93;8.03;;;;;;;18.98;78.82;96610.27;1828813;76;26499;-89
2021/07/31 08:37:40;;;;;;;12.23;9.80;;;;;;;18.98;78.79;96614.36;1828453;76;25758;-91
2021/07/31 08:40:11;;;;;;;17.05;10.53;;;;;;;18.96;78.85;96617.11;1829684;76;27379;-90
2021/07/31 08:42:39;;;;;;;13.55;10.10;;;;;;;18.98;78.92;96621.20;1818248;77;25714;-89
2021/07/31 08:45:09;;;;;;;14.98;10.43;;;;;;;19.01;79.08;96616.54;1838854;77;25707;-89
2021/07/31 08:47:38;;;;;;;11.25;9.23;;;;;;;19.06;79.22;96612.97;1828936;77;25688;-90
2021/07/31 08:50:11;;;;;;;15.60;9.75;;;;;;;19.12;79.26;96619.20;1823367;77;25680;-91
2021/07/31 08:52:40;;;;;;;13.43;9.53;;;;;;;19.17;79.34;96632.86;1829748;76;28186;-90
2021/07/31 08:55:08;;;;;;;9.68;8.68;;;;;;;19.17;79.34;96639.14;1833068;76;25955;-90
2021/07/31 08:57:35;;;;;;;14.60;9.90;;;;;;;19.19;79.39;96624.63;1825918;77;25793;-89
2021/07/31 09:00:03;;;;;;;15.18;10.18;;;;;;;19.23;79.50;96620.20;1790331;78;25783;-89
2021/07/31 09:02:45;;;;;;;11.53;9.23;;;;;;;19.32;79.63;96612.22;1799199;77;25684;-91
2021/07/31 09:05:14;;;;;;;12.28;9.13;;;;;;;19.39;79.61;96618.17;1796408;77;27361;-91
2021/07/31 09:07:42;;;;;;;10.30;9.00;;;;;;;19.42;79.55;96625.27;1758892;79;25769;-90
2021/07/31 09:10:29;;;;;;;11.38;9.65;;;;;;;19.52;79.63;96618.09;1790569;79;25771;-89
2021/07/31 09:12:59;;;;;;;12.90;9.35;;;;;;;19.66;79.61;96617.14;1829470;77;25744;-93
2021/07/31 09:15:38;;;;;;;9.05;8.18;;;;;;;19.89;79.43;96616.10;1820423;77;25303;-91
2021/07/31 09:18:43;;;;;;;10.10;8.63;;;;;;;20.07;78.95;96608.50;1818520;77;27398;-93
2021/07/31 09:21:15;;;;;;;11.22;8.65;;;;;;;20.25;79.25;96615.16;1814221;78;25700;-91
2021/07/31 09:23:49;;;;;;;12.90;9.00;;;;;;;20.35;79.13;96621.36;1825551;78;25523;-93
2021/07/31 09:26:26;;;;;;;10.43;8.63;;;;;;;20.40;79.06;96628.16;1807029;77;25973;-92
2021/07/31 09:29:11;;;;;;;9.55;7.85;;;;;;;20.41;78.66;96640.73;1818230;77;26570;-94
2021/07/31 09:31:54;;;;;;;9.00;7.83;;;;;;;20.42;78.61;96643.73;1828799;75;27699;-94
2021/07/31 09:34:44;;;;;;;9.58;8.33;;;;;;;20.43;78.27;96645.37;1805760;78;25932;-93
2021/07/31 09:37:24;;;;;;;9.33;7.53;;;;;;;20.49;78.41;96641.47;1807743;78;25790;-95
2021/07/31 09:40:00;;;;;;;8.50;7.53;;;;;;;20.54;78.48;96642.50;1832671;77;25995;-93
2021/07/31 09:42:37;;;;;;;10.10;7.90;;;;;;;20.55;78.12;96642.77;1844316;77;26699;-94
2021/07/31 09:45:12;;;;;;;9.28;7.97;;;;;;;20.55;78.30;96640.02;1799648;75;27604;-93
2021/07/31 09:47:59;;;;;;;9.53;8.28;;;;;;;20.54;78.37;96639.20;1834801;76;25740;-93
2021/07/31 09:50:46;;;;;;;9.80;8.80;;;;;;;20.58;78.57;96636.70;1840615;75;26434;-92
2021/07/31 09:53:17;;;;;;;9.73;8.73;;;;;;;20.60;78.61;96633.12;1756096;80;26240;-93
2021/07/31 09:55:51;;;;;;;10.23;8.90;;;;;;;20.62;78.60;96635.83;1768239;79;25670;-92
2021/07/31 09:58:47;;;;;;;10.75;8.48;;;;;;;20.63;78.71;96629.80;1775672;78;27383;-92
2021/07/31 10:01:20;;;;;;;9.50;8.50;;;;;;;20.65;78.75;96628.37;1766430;78;25235;-93
2021/07/31 10:07:49;;;;;;;11.18;8.55;;;;;;;20.72;78.69;96623.91;1772100;78;25694;-93
2021/07/31 10:10:18;;;;;;;9.08;7.87;;;;;;;20.78;78.80;96613.11;1786794;77;25812;-91
2021/07/31 10:12:45;;;;;;;10.03;8.20;;;;;;;20.84;78.73;96616.06;1800558;77;28193;-92
2021/07/31 10:15:12;;;;;;;10.90;8.35;;;;;;;20.94;78.85;96614.54;1808387;77;26223;-92
2021/07/31 10:17:41;;;;;;;9.25;7.50;;;;;;;21.02;78.72;96604.81;1807834;77;25699;-92
2021/07/31 10:20:08;;;;;;;8.50;7.60;;;;;;;21.07;78.56;96602.00;1816318;77;26256;-92
2021/07/31 10:22:46;;;;;;;8.23;7.37;;;;;;;21.07;78.41;96586.36;1814453;77;25225;-91
2021/07/31 10:25:15;;;;;;;8.53;7.28;;;;;;;21.29;78.35;96594.55;1809838;76;28048;-91
2021/07/31 10:27:42;;;;;;;10.18;6.70;;;;;;;21.36;78.03;96582.65;1826981;76;25811;-90
2021/07/31 10:30:34;;;;;;;7.53;6.72;;;;;;;21.38;77.66;96578.46;1841033;75;25698;-87
2021/07/31 10:33:02;;;;;;;9.63;6.60;;;;;;;21.44;77.30;96584.70;1820350;76;25791;-89
2021/07/31 10:35:35;;;;;;;13.50;6.85;;;;;;;21.47;77.15;96571.75;1833096;77;25290;-87
2021/07/31 10:38:09;;;;;;;7.80;7.00;;;;;;;21.48;77.07;96566.52;1802650;77;27427;-88
2021/07/31 10:40:42;;;;;;;9.30;7.78;;;;;;;21.53;77.14;96565.03;1817414;77;25618;-87
2021/07/31 10:43:13;;;;;;;9.15;8.18;;;;;;;21.55;76.91;96560.06;1830740;78;25782;-85
2021/07/31 10:45:41;;;;;;;9.23;7.50;;;;;;;21.58;76.78;96555.34;1832534;77;25983;-87
2021/07/31 10:48:27;;;;;;;8.88;7.12;;;;;;;21.56;76.62;96557.58;1832632;77;25680;-86
2021/07/31 10:50:54;;;;;;;10.38;8.73;;;;;;;21.57;76.58;96553.72;1837793;77;27428;-87
2021/07/31 10:53:21;;;;;;;14.15;11.63;;;;;;;21.53;76.86;96544.45;1802037;77;25684;-92
2021/07/31 10:55:56;;;;;;;14.45;12.03;;;;;;;21.53;76.58;96544.45;1832596;77;25719;-92
2021/07/31 10:58:21;;;;;;;7.45;6.65;;;;;;;21.48;76.33;96544.55;1785609;79;25761;-86
2021/07/31 11:00:55;;;;;;;7.60;6.90;;;;;;;21.43;76.32;96535.02;1808599;77;25835;-87
2021/07/31 11:03:31;;;;;;;9.73;7.70;;;;;;;21.38;76.13;96538.66;1814867;77;28529;-87
2021/07/31 11:06:01;;;;;;;6.92;6.22;;;;;;;21.36;76.48;96530.49;1816227;77;25779;-86
2021/07/31 11:08:47;;;;;;;8.60;7.75;;;;;;;21.39;76.81;96531.23;1830814;77;26363;-85
2021/07/31 11:11:21;;;;;;;7.92;7.00;;;;;;;21.48;76.70;96533.57;1831918;77;25653;-88
2021/07/31 11:13:52;;;;;;;9.10;6.67;;;;;;;21.55;76.59;96533.98;1803329;77;25987;-85
2021/07/31 11:16:23;;;;;;;9.73;6.47;;;;;;;21.62;76.46;96528.89;1832650;77;27194;-87
2021/07/31 11:18:54;;;;;;;7.67;6.45;;;;;;;21.73;76.31;96528.98;1805696;78;26289;-86
2021/07/31 11:21:31;;;;;;;6.90;5.80;;;;;;;21.78;75.85;96532.99;1817485;77;25682;-84
2021/07/31 11:24:11;;;;;;;6.92;6.22;;;;;;;21.83;76.03;96530.16;1804559;76;25633;-83
2021/07/31 11:26:46;;;;;;;8.28;5.72;;;;;;;21.93;75.93;96534.63;1788156;78;25648;-84
2021/07/31 11:29:19;;;;;;;5.87;5.28;;;;;;;22.19;76.19;96536.34;1817048;78;28142;-81
2021/07/31 11:32:19;;;;;;;6.70;5.72;;;;;;;22.45;75.77;96530.56;1822130;77;25708;-82
2021/07/31 11:34:45;;;;;;;6.42;5.80;;;;;;;23.06;74.97;96534.70;1810025;78;25226;-83